Time;durP1;ratioP1;P1;durP2;ratioP2;P2;SDS_P1;SDS_P2;PMS_P1;PMS_P2;Temp;Humidity;BMP_temperature;BMP_pressure;BME280_temperature;BME280_humidity;BME280_pressure;Samples;Min_cycle;Max_cycle;Signal;HPM_P1;HPM_P2
2022/06/07 00:02:06;;;;;;;;;;;20.80;77.00;;;;;;6211775;23;19959;-96
2022/06/07 00:04:32;;;;;;;;;;;20.70;76.40;;;;;;6212668;23;19938;-96
2022/06/07 00:06:58;;;;;;;;;;;20.70;76.30;;;;;;6237754;23;19938;-97
2022/06/07 00:09:24;;;;;;;;;;;20.80;76.50;;;;;;6237522;23;19942;-96
2022/06/07 00:11:51;;;;;;;;;;;20.70;76.40;;;;;;6237610;23;19956;-96
2022/06/07 00:14:17;;;;;;;;;;;20.70;77.10;;;;;;6186031;23;19959;-96
2022/06/07 00:16:43;;;;;;;;;;;20.80;77.00;;;;;;6210751;23;19943;-96
2022/06/07 00:19:08;;;;;;;;;;;20.80;76.60;;;;;;6236320;23;20307;-96
2022/06/07 00:21:34;;;;;;;;;;;20.80;77.10;;;;;;6210409;23;19965;-96
2022/06/07 00:24:00;;;;;;;;;;;20.80;77.30;;;;;;6211107;23;19939;-96
2022/06/07 00:26:27;;;;;;;;;;;20.60;77.40;;;;;;6210650;23;19960;-96
2022/06/07 00:28:54;;;;;;;;;;;20.60;77.60;;;;;;6210843;23;19948;-96
2022/06/07 00:31:20;;;;;;;;;;;20.40;78.00;;;;;;6236882;23;19938;-96
2022/06/07 00:33:46;;;;;;;;;;;20.30;78.50;;;;;;6237786;23;19957;-97
2022/06/07 00:36:13;;;;;;;;;;;20.30;79.10;;;;;;6238257;23;19936;-96
2022/06/07 00:38:42;;;;;;;;;;;20.40;78.00;;;;;;6212034;23;19968;-96
2022/06/07 00:41:08;;;;;;;;;;;20.50;77.50;;;;;;6238211;23;19960;-96
2022/06/07 00:43:34;;;;;;;;;;;20.50;77.40;;;;;;6206787;23;19979;-96
2022/06/07 00:46:00;;;;;;;;;;;20.50;77.20;;;;;;6207092;23;19936;-96
2022/06/07 00:48:26;;;;;;;;;;;20.40;77.50;;;;;;6205591;23;19951;-96
2022/06/07 00:50:56;;;;;;;;;;;20.40;77.60;;;;;;6206235;23;19989;-96
2022/06/07 00:53:24;;;;;;;;;;;20.40;77.80;;;;;;6207089;23;19984;-96
2022/06/07 00:55:50;;;;;;;;;;;20.50;77.00;;;;;;6206502;23;19943;-96
2022/06/07 00:58:17;;;;;;;;;;;20.50;76.80;;;;;;6205136;23;19938;-96
2022/06/07 01:00:43;;;;;;;;;;;20.50;76.30;;;;;;6206891;23;19992;-96
2022/06/07 01:03:09;;;;;;;;;;;20.60;75.90;;;;;;6200544;23;19961;-96
2022/06/07 01:05:34;;;;;;;;;;;20.70;77.30;;;;;;6198895;23;20270;-96
2022/06/07 01:10:46;;;;;;;;;;;20.80;78.60;;;;;;6198812;23;20009;-96
2022/06/07 01:13:14;;;;;;;;;;;20.70;78.50;;;;;;6197594;23;19991;-96
2022/06/07 01:15:42;;;;;;;;;;;20.70;76.50;;;;;;6204749;23;19936;-96
2022/06/07 01:18:08;;;;;;;;;;;20.80;75.90;;;;;;6203243;23;19942;-96
2022/06/07 01:20:33;;;;;;;;;;;20.80;75.90;;;;;;6174520;23;19979;-96
2022/06/07 01:22:59;;;;;;;;;;;20.90;75.20;;;;;;6174246;23;19937;-96
2022/06/07 01:25:26;;;;;;;;;;;21.00;75.20;;;;;;6175669;23;19950;-96
2022/06/07 01:27:52;;;;;;;;;;;20.90;77.00;;;;;;6199248;23;19942;-96
2022/06/07 01:30:18;;;;;;;;;;;20.90;76.40;;;;;;6202103;23;19937;-96
2022/06/07 01:32:44;;;;;;;;;;;20.80;76.70;;;;;;6177430;23;19938;-96
2022/06/07 01:35:10;;;;;;;;;;;20.80;76.10;;;;;;6200518;23;19982;-96
2022/06/07 01:37:36;;;;;;;;;;;20.80;75.30;;;;;;6176180;23;19950;-96
2022/06/07 01:42:47;;;;;;;;;;;20.90;74.80;;;;;;6182192;23;20001;-96
2022/06/07 01:45:13;;;;;;;;;;;20.90;74.40;;;;;;6179638;23;19978;-96
2022/06/07 01:47:39;;;;;;;;;;;20.90;74.10;;;;;;6207208;23;19938;-96
2022/06/07 01:50:06;;;;;;;;;;;20.90;73.90;;;;;;6181046;23;19947;-96
2022/06/07 01:52:35;;;;;;;;;;;20.90;74.20;;;;;;6206894;23;19978;-96
2022/06/07 01:55:01;;;;;;;;;;;20.90;74.70;;;;;;6181724;23;19938;-96
2022/06/07 01:57:28;;;;;;;;;;;20.80;74.40;;;;;;6181171;23;20430;-97
2022/06/07 01:59:55;;;;;;;;;;;20.90;74.20;;;;;;6181718;23;20186;-97
2022/06/07 02:02:24;;;;;;;;;;;20.90;74.20;;;;;;6180066;23;19962;-96
2022/06/07 02:04:50;;;;;;;;;;;20.90;74.00;;;;;;6179861;23;19983;-96
2022/06/07 02:07:18;;;;;;;;;;;20.80;74.10;;;;;;6205186;23;19946;-96
2022/06/07 02:09:44;;;;;;;;;;;20.80;74.20;;;;;;6180379;23;19938;-96
2022/06/07 02:12:11;;;;;;;;;;;20.80;74.30;;;;;;6207992;23;19963;-96
2022/06/07 02:14:38;;;;;;;;;;;20.70;74.50;;;;;;6181683;23;19941;-96
2022/06/07 02:17:04;;;;;;;;;;;20.70;74.70;;;;;;6208274;23;19937;-96
2022/06/07 02:19:31;;;;;;;;;;;20.70;75.60;;;;;;6182424;23;19944;-96
2022/06/07 02:21:57;;;;;;;;;;;20.70;75.60;;;;;;6208372;23;19952;-96
2022/06/07 02:24:23;;;;;;;;;;;20.60;76.30;;;;;;6183406;23;19944;-96
2022/06/07 02:26:50;;;;;;;;;;;20.60;76.50;;;;;;6183577;23;19951;-96
2022/06/07 02:29:18;;;;;;;;;;;20.40;77.00;;;;;;6207569;23;19933;-96
2022/06/07 02:31:55;;;;;;;;;;;20.30;78.10;;;;;;6175298;23;19996;-96
2022/06/07 02:34:21;;;;;;;;;;;20.30;78.40;;;;;;6200937;23;19940;-96
2022/06/07 02:36:48;;;;;;;;;;;20.20;79.20;;;;;;6175639;23;19936;-96
2022/06/07 02:39:15;;;;;;;;;;;20.10;79.20;;;;;;6200926;23;20007;-96
2022/06/07 02:41:41;;;;;;;;;;;20.10;79.10;;;;;;6182208;23;19967;-96
2022/06/07 02:44:08;;;;;;;;;;;20.10;79.60;;;;;;6209006;23;19998;-96
2022/06/07 02:46:34;;;;;;;;;;;20.20;79.60;;;;;;6185816;23;19954;-96
2022/06/07 02:49:01;;;;;;;;;;;20.30;79.40;;;;;;6186054;23;19950;-96
2022/06/07 02:51:27;;;;;;;;;;;20.40;79.30;;;;;;6210838;23;20000;-96
2022/06/07 02:53:53;;;;;;;;;;;20.50;79.10;;;;;;6186355;23;19944;-96
2022/06/07 02:56:20;;;;;;;;;;;20.60;79.00;;;;;;6186182;23;19939;-96
2022/06/07 02:58:47;;;;;;;;;;;20.60;78.90;;;;;;6186090;23;19941;-96
2022/06/07 03:01:14;;;;;;;;;;;20.70;78.90;;;;;;6209283;23;19968;-96
2022/06/07 03:03:41;;;;;;;;;;;20.80;79.00;;;;;;6185148;23;19947;-96
2022/06/07 03:06:08;;;;;;;;;;;20.80;79.00;;;;;;6211310;23;19970;-96
2022/06/07 03:08:34;;;;;;;;;;;20.90;78.80;;;;;;6185265;23;20038;-96
2022/06/07 03:11:01;;;;;;;;;;;20.90;78.70;;;;;;6211392;23;19933;-96
2022/06/07 03:13:34;;;;;;;;;;;21.00;78.60;;;;;;6185199;23;20018;-97
2022/06/07 03:16:02;;;;;;;;;;;21.00;78.60;;;;;;6185818;23;19942;-96
2022/06/07 03:18:29;;;;;;;;;;;21.00;78.60;;;;;;6186256;23;19922;-96
2022/06/07 03:20:55;;;;;;;;;;;21.10;78.60;;;;;;6186069;23;19961;-97
2022/06/07 03:23:22;;;;;;;;;;;21.20;78.50;;;;;;6210546;23;19950;-96
2022/06/07 03:25:48;;;;;;;;;;;21.20;78.60;;;;;;6185784;23;19958;-96
2022/06/07 03:28:20;;;;;;;;;;;21.20;78.80;;;;;;6208818;23;19935;-96
2022/06/07 03:30:46;;;;;;;;;;;21.30;79.20;;;;;;6181061;23;19945;-96
2022/06/07 03:33:12;;;;;;;;;;;21.20;79.80;;;;;;6180051;23;19939;-96
2022/06/07 03:35:40;;;;;;;;;;;21.10;80.10;;;;;;6206836;23;19958;-96
2022/06/07 03:38:06;;;;;;;;;;;21.10;80.70;;;;;;6204851;23;19938;-96
2022/06/07 03:40:44;;;;;;;;;;;21.00;81.40;;;;;;6178682;23;19969;-96
2022/06/07 03:43:10;;;;;;;;;;;21.00;81.80;;;;;;6168913;23;20023;-96
2022/06/07 03:45:36;;;;;;;;;;;20.90;81.90;;;;;;6142263;23;19939;-96
2022/06/07 03:48:02;;;;;;;;;;;20.90;82.00;;;;;;6135328;23;20027;-96
2022/06/07 03:50:27;;;;;;;;;;;20.80;82.40;;;;;;6135644;23;19945;-96
2022/06/07 03:52:53;;;;;;;;;;;20.80;82.80;;;;;;6133164;23;19945;-96
2022/06/07 03:55:19;;;;;;;;;;;20.80;83.00;;;;;;6133275;23;20009;-96
2022/06/07 03:57:44;;;;;;;;;;;20.70;83.50;;;;;;6129718;23;20243;-96
2022/06/07 04:00:10;;;;;;;;;;;20.70;84.10;;;;;;6151572;23;20067;-96
2022/06/07 04:02:36;;;;;;;;;;;20.80;82.70;;;;;;6128958;23;19948;-96
2022/06/07 04:05:01;;;;;;;;;;;20.80;83.10;;;;;;6129480;23;19942;-96
2022/06/07 04:10:11;;;;;;;;;;;20.90;81.70;;;;;;6131340;23;19947;-96
2022/06/07 04:12:37;;;;;;;;;;;20.90;81.50;;;;;;6134666;23;19941;-96
2022/06/07 04:15:03;;;;;;;;;;;20.90;81.30;;;;;;6141871;23;19942;-96
2022/06/07 04:17:29;;;;;;;;;;;20.90;81.00;;;;;;6168158;23;19965;-96
2022/06/07 04:19:54;;;;;;;;;;;20.90;81.40;;;;;;6147432;23;19974;-96
2022/06/07 04:22:20;;;;;;;;;;;20.90;81.90;;;;;;6147597;23;19954;-96
2022/06/07 04:24:46;;;;;;;;;;;20.90;82.80;;;;;;6148179;23;19938;-96
2022/06/07 04:27:13;;;;;;;;;;;20.90;84.20;;;;;;6146330;23;19933;-96
2022/06/07 04:29:39;;;;;;;;;;;20.80;83.70;;;;;;6142478;23;19944;-96
2022/06/07 04:32:05;;;;;;;;;;;20.80;82.90;;;;;;6140981;23;19954;-96
2022/06/07 04:34:31;;;;;;;;;;;20.80;82.70;;;;;;6143131;23;19941;-96
2022/06/07 04:36:57;;;;;;;;;;;20.80;83.20;;;;;;6144030;23;20015;-96
2022/06/07 04:39:23;;;;;;;;;;;20.80;83.10;;;;;;6145131;23;19942;-96
2022/06/07 04:41:49;;;;;;;;;;;20.90;83.20;;;;;;6143202;23;20074;-96
2022/06/07 04:44:14;;;;;;;;;;;20.90;83.30;;;;;;6143722;23;19978;-96
2022/06/07 04:46:40;;;;;;;;;;;20.90;83.20;;;;;;6139658;23;19946;-96
2022/06/07 04:49:06;;;;;;;;;;;21.00;83.50;;;;;;6136577;23;19942;-96
2022/06/07 04:51:34;;;;;;;;;;;21.00;83.20;;;;;;6136621;23;19931;-96
2022/06/07 04:54:01;;;;;;;;;;;21.00;83.60;;;;;;6109034;23;19970;-96
2022/06/07 04:56:28;;;;;;;;;;;21.00;83.90;;;;;;6134642;23;19938;-96
2022/06/07 04:58:54;;;;;;;;;;;21.00;84.40;;;;;;6131479;23;19940;-96
2022/06/07 05:01:19;;;;;;;;;;;20.90;84.40;;;;;;6128020;23;19954;-96
2022/06/07 05:03:45;;;;;;;;;;;20.80;83.40;;;;;;6127318;23;19943;-96
2022/06/07 05:06:17;;;;;;;;;;;20.80;83.60;;;;;;6129041;23;19949;-96
2022/06/07 05:08:43;;;;;;;;;;;20.90;83.20;;;;;;6128932;23;20355;-96
2022/06/07 05:11:08;;;;;;;;;;;21.00;83.00;;;;;;6128788;23;19947;-96
2022/06/07 05:13:34;;;;;;;;;;;21.00;82.80;;;;;;6129009;23;20013;-96
2022/06/07 05:16:00;;;;;;;;;;;21.00;83.20;;;;;;6134013;23;19939;-96
2022/06/07 05:18:25;;;;;;;;;;;21.00;82.80;;;;;;6110615;23;19950;-96
2022/06/07 05:20:51;;;;;;;;;;;21.00;82.80;;;;;;6109598;23;19960;-96
2022/06/07 05:23:16;;;;;;;;;;;21.00;83.10;;;;;;6137630;23;19939;-96
2022/06/07 05:25:52;;;;;;;;;;;21.00;83.30;;;;;;6139226;23;19964;-96
2022/06/07 05:28:18;;;;;;;;;;;21.00;83.20;;;;;;6138678;23;19934;-96
2022/06/07 05:30:45;;;;;;;;;;;21.00;83.20;;;;;;6114505;23;19947;-97
2022/06/07 05:33:10;;;;;;;;;;;20.90;83.10;;;;;;6113390;23;19979;-96
2022/06/07 05:35:36;;;;;;;;;;;20.80;82.60;;;;;;6140392;23;19941;-96
2022/06/07 05:38:02;;;;;;;;;;;20.90;82.90;;;;;;6141136;23;19934;-96
2022/06/07 05:40:27;;;;;;;;;;;20.80;82.60;;;;;;6113361;23;19949;-96
2022/06/07 05:42:53;;;;;;;;;;;20.80;82.80;;;;;;6135485;23;20002;-96
2022/06/07 05:45:18;;;;;;;;;;;20.80;83.10;;;;;;6115617;23;19999;-96
2022/06/07 05:47:44;;;;;;;;;;;20.70;82.90;;;;;;6141481;23;19940;-96
2022/06/07 05:50:10;;;;;;;;;;;20.70;82.90;;;;;;6114006;23;20013;-96
2022/06/07 05:52:40;;;;;;;;;;;20.70;82.80;;;;;;6120503;23;19945;-97
2022/06/07 05:55:06;;;;;;;;;;;20.70;82.90;;;;;;6144956;23;20358;-96
2022/06/07 05:57:34;;;;;;;;;;;20.70;83.80;;;;;;6139205;23;20358;-96
2022/06/07 05:59:59;;;;;;;;;;;20.50;85.10;;;;;;6128087;23;19934;-96
2022/06/07 06:02:25;;;;;;;;;;;20.50;85.20;;;;;;6130586;23;19965;-96
2022/06/07 06:04:56;;;;;;;;;;;20.50;84.90;;;;;;6138285;23;19929;-96
2022/06/07 06:07:25;;;;;;;;;;;20.40;85.30;;;;;;6138456;23;20405;-96
2022/06/07 06:12:40;;;;;;;;;;;20.40;85.50;;;;;;6151650;23;19946;-96
2022/06/07 06:15:11;;;;;;;;;;;20.30;85.60;;;;;;6145226;23;20017;-96
2022/06/07 06:17:37;;;;;;;;;;;20.20;86.10;;;;;;6142392;23;19963;-96
2022/06/07 06:20:03;;;;;;;;;;;20.20;86.40;;;;;;6142306;23;20247;-96
2022/06/07 06:22:28;;;;;;;;;;;20.10;86.80;;;;;;6131794;23;20276;-96
2022/06/07 06:24:54;;;;;;;;;;;20.00;87.10;;;;;;6131411;23;19937;-96
2022/06/07 06:27:20;;;;;;;;;;;20.00;87.50;;;;;;6132289;23;19936;-95
2022/06/07 06:29:45;;;;;;;;;;;19.90;87.70;;;;;;6129729;23;20029;-96
2022/06/07 06:32:11;;;;;;;;;;;19.80;87.90;;;;;;6111034;23;19943;-96
2022/06/07 06:34:37;;;;;;;;;;;19.80;88.20;;;;;;6134935;23;20354;-96
2022/06/07 06:37:02;;;;;;;;;;;19.70;88.40;;;;;;6132670;23;19938;-96
2022/06/07 06:39:29;;;;;;;;;;;19.60;88.70;;;;;;6128022;23;19935;-96
2022/06/07 06:41:54;;;;;;;;;;;19.60;88.60;;;;;;6127291;23;19954;-96
2022/06/07 06:44:20;;;;;;;;;;;19.50;88.70;;;;;;6132226;23;20018;-96
2022/06/07 06:46:47;;;;;;;;;;;19.60;88.70;;;;;;6133961;23;19930;-96
2022/06/07 06:49:13;;;;;;;;;;;19.60;88.10;;;;;;6104977;23;20023;-96
2022/06/07 06:51:41;;;;;;;;;;;19.50;88.10;;;;;;6128130;23;20001;-96
2022/06/07 06:54:07;;;;;;;;;;;19.50;88.00;;;;;;6128501;23;19982;-96
2022/06/07 06:56:32;;;;;;;;;;;19.50;88.10;;;;;;6127561;23;20069;-96
2022/06/07 06:58:58;;;;;;;;;;;19.40;88.40;;;;;;6129305;23;19965;-96
2022/06/07 07:01:29;;;;;;;;;;;19.30;88.40;;;;;;6128896;23;19940;-96
2022/06/07 07:03:55;;;;;;;;;;;19.30;88.80;;;;;;6127785;23;20416;-95
2022/06/07 07:06:22;;;;;;;;;;;19.30;88.30;;;;;;6137165;23;19943;-96
2022/06/07 07:08:49;;;;;;;;;;;19.30;87.90;;;;;;6109078;23;19949;-96
2022/06/07 07:11:17;;;;;;;;;;;19.30;86.90;;;;;;6139075;23;19992;-96
2022/06/07 07:13:43;;;;;;;;;;;19.30;86.90;;;;;;6129049;23;19937;-96
2022/06/07 07:16:10;;;;;;;;;;;19.30;86.40;;;;;;6129168;23;20018;-96
2022/06/07 07:18:36;;;;;;;;;;;19.30;86.10;;;;;;6128862;23;19969;-96
2022/06/07 07:21:06;;;;;;;;;;;19.30;86.30;;;;;;6133122;23;19962;-96
2022/06/07 07:23:32;;;;;;;;;;;19.10;86.30;;;;;;6137391;23;19934;-96
2022/06/07 07:26:06;;;;;;;;;;;19.10;86.90;;;;;;6129897;23;20030;-96
2022/06/07 07:28:33;;;;;;;;;;;18.90;87.20;;;;;;6130997;23;19970;-96
2022/06/07 07:31:03;;;;;;;;;;;18.90;87.40;;;;;;6129288;23;19936;-95
2022/06/07 07:33:28;;;;;;;;;;;18.80;87.70;;;;;;6128738;23;19971;-94
2022/06/07 07:35:55;;;;;;;;;;;18.80;88.20;;;;;;6128546;23;19938;-96
2022/06/07 07:38:20;;;;;;;;;;;18.80;88.60;;;;;;6128479;23;19940;-96
2022/06/07 07:40:46;;;;;;;;;;;18.70;89.00;;;;;;6127953;23;20377;-95
2022/06/07 07:43:12;;;;;;;;;;;18.70;89.30;;;;;;6111547;23;19980;-96
2022/06/07 07:45:38;;;;;;;;;;;18.60;89.60;;;;;;6128859;23;20266;-96
2022/06/07 07:48:03;;;;;;;;;;;18.60;89.80;;;;;;6128786;23;20357;-96
2022/06/07 07:50:29;;;;;;;;;;;18.50;90.00;;;;;;6126956;23;20029;-95
2022/06/07 07:52:57;;;;;;;;;;;18.50;90.20;;;;;;6128467;23;19960;-95
2022/06/07 07:55:23;;;;;;;;;;;18.50;90.20;;;;;;6128335;23;19939;-95
2022/06/07 07:57:48;;;;;;;;;;;18.60;90.40;;;;;;6128079;23;19937;-95
2022/06/07 08:00:14;;;;;;;;;;;18.60;90.50;;;;;;6127266;23;20250;-95
2022/06/07 08:02:39;;;;;;;;;;;18.60;90.80;;;;;;6127229;23;20430;-96
2022/06/07 08:05:05;;;;;;;;;;;18.70;90.90;;;;;;6128617;23;20375;-95
2022/06/07 08:07:32;;;;;;;;;;;18.70;90.90;;;;;;6128812;23;19946;-95
2022/06/07 08:09:59;;;;;;;;;;;18.80;90.60;;;;;;6128729;23;19950;-95
2022/06/07 08:12:26;;;;;;;;;;;18.90;90.30;;;;;;6128264;23;19939;-96
2022/06/07 08:14:52;;;;;;;;;;;19.00;90.00;;;;;;6128355;23;20240;-96
2022/06/07 08:17:18;;;;;;;;;;;19.20;89.90;;;;;;6126827;23;19980;-95
2022/06/07 08:19:43;;;;;;;;;;;19.40;89.20;;;;;;6127220;23;19928;-96
2022/06/07 08:22:09;;;;;;;;;;;19.40;89.30;;;;;;6126170;23;19965;-96
2022/06/07 08:24:35;;;;;;;;;;;19.60;89.30;;;;;;6152040;23;19942;-96
2022/06/07 08:27:01;;;;;;;;;;;19.70;89.10;;;;;;6128332;23;19956;-96
2022/06/07 08:29:26;;;;;;;;;;;19.80;89.10;;;;;;6128111;23;19940;-96
2022/06/07 08:31:52;;;;;;;;;;;19.90;88.80;;;;;;6128875;23;19934;-96
2022/06/07 08:39:46;;;;;;;;;;;20.30;87.80;;;;;;6128673;23;19945;-96
2022/06/07 08:42:38;;;;;;;;;;;20.30;87.50;;;;;;6128357;23;19960;-96
2022/06/07 08:45:05;;;;;;;;;;;20.40;87.80;;;;;;6084386;23;19951;-96
2022/06/07 08:47:41;;;;;;;;;;;20.50;88.00;;;;;;6130722;23;19941;-96
2022/06/07 08:50:13;;;;;;;;;;;20.60;87.60;;;;;;6129200;23;19928;-96
2022/06/07 08:52:39;;;;;;;;;;;20.70;87.30;;;;;;6129000;23;19936;-94
2022/06/07 08:55:12;;;;;;;;;;;20.80;87.50;;;;;;6125991;23;20481;-94
2022/06/07 08:57:38;;;;;;;;;;;20.80;86.80;;;;;;6127907;23;19938;-94
2022/06/07 09:00:21;;;;;;;;;;;20.80;87.30;;;;;;6127605;23;19944;-94
2022/06/07 09:03:16;;;;;;;;;;;20.80;87.10;;;;;;6128273;23;20260;-94
2022/06/07 09:05:42;;;;;;;;;;;20.80;86.50;;;;;;6024219;23;19944;-94
2022/06/07 09:08:09;;;;;;;;;;;20.90;86.70;;;;;;6127892;23;20371;-95
2022/06/07 09:13:20;;;;;;;;;;;20.90;85.60;;;;;;6127484;23;20269;-94
2022/06/07 09:15:48;;;;;;;;;;;20.90;86.00;;;;;;6127556;23;19997;-95
2022/06/07 09:18:15;;;;;;;;;;;21.10;85.40;;;;;;6127847;23;19997;-94
2022/06/07 09:20:42;;;;;;;;;;;21.20;85.00;;;;;;6127289;23;20352;-95
2022/06/07 09:23:20;;;;;;;;;;;21.30;82.70;;;;;;6128111;23;19968;-95
2022/06/07 09:25:51;;;;;;;;;;;21.30;83.50;;;;;;6127276;23;20065;-95
2022/06/07 09:28:26;;;;;;;;;;;21.30;82.20;;;;;;6127121;23;19938;-96
2022/06/07 09:31:00;;;;;;;;;;;21.30;82.30;;;;;;6127252;23;19932;-95
2022/06/07 09:33:26;;;;;;;;;;;21.30;82.60;;;;;;6127721;23;19941;-95
2022/06/07 09:35:52;;;;;;;;;;;21.20;82.90;;;;;;6127302;23;20005;-94
2022/06/07 09:38:27;;;;;;;;;;;21.00;84.80;;;;;;6127063;23;19944;-96
2022/06/07 09:40:52;;;;;;;;;;;20.80;85.30;;;;;;6127115;23;19959;-95
2022/06/07 09:43:20;;;;;;;;;;;20.80;85.90;;;;;;6127097;23;20314;-95
2022/06/07 09:46:19;;;;;;;;;;;20.80;86.20;;;;;;6127249;23;20384;-96
2022/06/07 09:48:45;;;;;;;;;;;20.70;86.30;;;;;;6064990;23;19952;-95
2022/06/07 09:51:19;;;;;;;;;;;20.70;86.40;;;;;;6128257;23;19937;-96
2022/06/07 09:53:47;;;;;;;;;;;20.90;86.40;;;;;;6127300;23;19948;-96
2022/06/07 09:56:20;;;;;;;;;;;21.20;86.00;;;;;;6127188;23;19947;-96
2022/06/07 09:58:52;;;;;;;;;;;21.40;85.50;;;;;;6127605;23;19945;-96
2022/06/07 10:01:22;;;;;;;;;;;21.50;85.10;;;;;;6127127;23;19962;-94
2022/06/07 10:03:54;;;;;;;;;;;21.80;84.00;;;;;;6127255;23;19943;-95
2022/06/07 10:06:29;;;;;;;;;;;21.90;83.10;;;;;;6127354;23;20009;-95
2022/06/07 10:09:14;;;;;;;;;;;21.90;83.10;;;;;;6126961;23;19937;-95
2022/06/07 10:11:52;;;;;;;;;;;22.00;83.60;;;;;;6101249;23;19952;-95
2022/06/07 10:14:40;;;;;;;;;;;21.90;83.70;;;;;;6127215;23;20085;-95
2022/06/07 10:17:44;;;;;;;;;;;21.90;83.40;;;;;;6127223;23;19943;-94
2022/06/07 10:20:38;;;;;;;;;;;21.80;83.60;;;;;;6009519;23;19946;-95
2022/06/07 10:23:05;;;;;;;;;;;21.80;84.00;;;;;;6009795;23;19943;-95
2022/06/07 10:25:31;;;;;;;;;;;21.90;83.30;;;;;;6087979;23;19959;-95
2022/06/07 10:27:59;;;;;;;;;;;21.90;83.10;;;;;;6127783;23;19939;-95
2022/06/07 10:30:40;;;;;;;;;;;22.10;81.00;;;;;;6127450;23;19937;-95
2022/06/07 10:33:18;;;;;;;;;;;22.30;80.70;;;;;;6102597;23;19971;-95
2022/06/07 10:35:53;;;;;;;;;;;22.60;78.60;;;;;;6129397;23;19937;-95
2022/06/07 10:38:18;;;;;;;;;;;22.70;79.00;;;;;;6128986;23;20009;-96
2022/06/07 10:41:02;;;;;;;;;;;22.80;75.60;;;;;;6129286;23;19990;-95
2022/06/07 10:43:31;;;;;;;;;;;22.90;73.90;;;;;;6128874;23;19976;-95
2022/06/07 10:46:00;;;;;;;;;;;23.20;74.00;;;;;;6129012;23;19943;-95
2022/06/07 10:48:33;;;;;;;;;;;23.50;77.80;;;;;;6129607;23;19986;-95
2022/06/07 10:52:20;;;;;;;;;;;23.70;72.30;;;;;;6128852;23;20309;-95
2022/06/07 10:54:02;;;;;;;;;;;23.90;72.30;;;;;;6128401;23;19937;-96
2022/06/07 10:56:31;;;;;;;;;;;24.20;70.50;;;;;;6129164;23;19948;-95
2022/06/07 10:58:58;;;;;;;;;;;24.40;70.60;;;;;;6128811;23;19933;-95
2022/06/07 11:01:35;;;;;;;;;;;24.70;71.30;;;;;;6128816;23;20013;-95
2022/06/07 11:04:06;;;;;;;;;;;24.90;68.50;;;;;;6129415;23;20259;-96
2022/06/07 11:09:31;;;;;;;;;;;25.60;68.20;;;;;;6129091;23;19989;-95
2022/06/07 11:12:00;;;;;;;;;;;26.00;65.50;;;;;;6129028;23;19960;-96
2022/06/07 11:14:45;;;;;;;;;;;26.40;64.50;;;;;;6128641;23;19945;-95
2022/06/07 11:17:25;;;;;;;;;;;26.80;63.80;;;;;;6129001;23;20457;-95
2022/06/07 11:19:52;;;;;;;;;;;27.20;61.40;;;;;;6127097;23;19948;-96
2022/06/07 11:22:18;;;;;;;;;;;27.50;60.90;;;;;;6128524;23;20393;-96
2022/06/07 11:24:55;;;;;;;;;;;27.80;61.00;;;;;;6102514;23;19947;-95
2022/06/07 11:27:22;;;;;;;;;;;27.90;58.40;;;;;;6102543;23;19938;-95
2022/06/07 11:29:48;;;;;;;;;;;28.10;55.80;;;;;;6128491;23;19939;-96
2022/06/07 11:32:43;;;;;;;;;;;27.70;58.90;;;;;;6128507;23;19964;-96
2022/06/07 11:35:28;;;;;;;;;;;27.80;55.50;;;;;;6103658;23;20273;-96
2022/06/07 11:37:53;;;;;;;;;;;27.50;55.10;;;;;;6129965;23;19940;-96
2022/06/07 11:40:29;;;;;;;;;;;27.70;55.80;;;;;;6133954;23;19944;-96
2022/06/07 11:42:55;;;;;;;;;;;27.90;52.00;;;;;;6159763;23;20426;-96
2022/06/07 11:45:23;;;;;;;;;;;28.10;53.90;;;;;;6192922;23;19932;-96
2022/06/07 11:47:48;;;;;;;;;;;28.20;55.50;;;;;;6196768;23;19938;-96
2022/06/07 11:50:31;;;;;;;;;;;28.20;54.40;;;;;;6192480;23;19941;-96
2022/06/07 11:53:00;;;;;;;;;;;28.20;55.00;;;;;;6187577;23;19967;-96
2022/06/07 11:55:28;;;;;;;;;;;28.30;54.10;;;;;;6187423;23;19932;-96
2022/06/07 11:57:56;;;;;;;;;;;28.40;55.40;;;;;;6187901;23;20015;-96
2022/06/07 12:00:22;;;;;;;;;;;28.40;53.80;;;;;;6187800;23;19938;-96
2022/06/07 12:02:56;;;;;;;;;;;28.60;54.00;;;;;;6187408;23;19960;-96
2022/06/07 12:05:30;;;;;;;;;;;28.80;54.30;;;;;;6186503;23;19964;-96
2022/06/07 12:08:10;;;;;;;;;;;29.20;54.30;;;;;;6187392;23;19968;-96
2022/06/07 12:10:37;;;;;;;;;;;29.70;51.80;;;;;;6187351;23;19947;-96
2022/06/07 12:13:11;;;;;;;;;;;30.30;50.20;;;;;;6187394;23;19946;-96
2022/06/07 12:15:39;;;;;;;;;;;30.60;47.40;;;;;;6187379;23;19938;-96
2022/06/07 12:18:14;;;;;;;;;;;30.70;47.90;;;;;;6186859;23;20019;-95
2022/06/07 12:20:40;;;;;;;;;;;30.30;47.50;;;;;;6160789;23;19936;-95
2022/06/07 12:23:24;;;;;;;;;;;29.60;50.80;;;;;;6160810;23;19942;-94
2022/06/07 12:25:58;;;;;;;;;;;29.20;50.50;;;;;;6187453;23;19952;-95
2022/06/07 12:28:25;;;;;;;;;;;29.00;51.10;;;;;;6187234;23;20387;-95
2022/06/07 12:30:50;;;;;;;;;;;29.10;52.20;;;;;;6187161;23;20003;-96
2022/06/07 12:33:23;;;;;;;;;;;29.00;51.50;;;;;;6187236;23;19977;-96
2022/06/07 12:35:52;;;;;;;;;;;29.00;52.00;;;;;;6187319;23;19947;-96
2022/06/07 12:38:18;;;;;;;;;;;28.90;50.70;;;;;;6187162;23;19994;-95
2022/06/07 12:41:01;;;;;;;;;;;29.00;48.40;;;;;;6187501;23;19939;-96
2022/06/07 12:43:37;;;;;;;;;;;29.20;50.00;;;;;;6184196;23;19974;-96
2022/06/07 12:46:07;;;;;;;;;;;29.20;50.90;;;;;;6178833;23;19937;-96
2022/06/07 12:48:37;;;;;;;;;;;29.20;49.80;;;;;;6185469;23;20284;-96
2022/06/07 12:51:18;;;;;;;;;;;29.30;50.20;;;;;;6187004;23;19940;-96
2022/06/07 12:53:46;;;;;;;;;;;29.60;48.80;;;;;;6186834;23;20384;-96
2022/06/07 12:56:12;;;;;;;;;;;29.80;49.10;;;;;;6186694;23;20001;-96
2022/06/07 12:58:42;;;;;;;;;;;30.20;44.30;;;;;;6186791;23;19945;-96
2022/06/07 13:01:23;;;;;;;;;;;30.20;45.20;;;;;;6187090;23;20006;-96
2022/06/07 13:03:50;;;;;;;;;;;30.50;41.20;;;;;;6186876;23;20364;-95
2022/06/07 13:06:20;;;;;;;;;;;30.60;42.70;;;;;;6186634;23;20253;-95
2022/06/07 13:09:00;;;;;;;;;;;30.60;43.40;;;;;;6160277;23;19994;-96
2022/06/07 13:11:28;;;;;;;;;;;30.30;43.00;;;;;;6186773;23;19945;-95
2022/06/07 13:13:54;;;;;;;;;;;31.00;44.70;;;;;;6187447;23;19970;-95
2022/06/07 13:16:20;;;;;;;;;;;31.30;42.40;;;;;;6186721;23;19943;-96
2022/06/07 13:19:02;;;;;;;;;;;31.70;43.40;;;;;;6187058;23;19941;-96
2022/06/07 13:21:38;;;;;;;;;;;32.20;39.70;;;;;;6160086;23;19958;-96
2022/06/07 13:24:04;;;;;;;;;;;31.10;41.20;;;;;;6160238;23;20000;-96
2022/06/07 13:26:31;;;;;;;;;;;30.40;43.40;;;;;;6186667;23;19957;-95
2022/06/07 13:29:02;;;;;;;;;;;29.70;45.20;;;;;;6186958;23;19991;-96
2022/06/07 13:31:43;;;;;;;;;;;29.20;47.70;;;;;;6186526;23;20007;-96
2022/06/07 13:34:26;;;;;;;;;;;28.70;48.90;;;;;;6159496;23;19939;-95
2022/06/07 13:37:10;;;;;;;;;;;28.30;51.60;;;;;;6187011;23;19937;-95
2022/06/07 13:39:38;;;;;;;;;;;27.80;52.90;;;;;;6186308;23;19939;-96
2022/06/07 13:42:23;;;;;;;;;;;26.50;59.20;;;;;;6185471;23;20088;-96
2022/06/07 13:45:00;;;;;;;;;;;24.90;64.30;;;;;;6160045;23;19950;-96
2022/06/07 13:47:31;;;;;;;;;;;23.90;68.30;;;;;;6185607;23;20352;-95
2022/06/07 13:55:46;;;;;;;;;;;22.70;72.20;;;;;;6186267;23;19949;-96
2022/06/07 13:58:12;;;;;;;;;;;22.50;72.60;;;;;;6186768;23;19971;-96
2022/06/07 14:00:38;;;;;;;;;;;22.40;72.60;;;;;;6185866;23;19937;-95
2022/06/07 14:03:13;;;;;;;;;;;22.30;72.30;;;;;;6186691;23;19935;-95
2022/06/07 14:05:39;;;;;;;;;;;22.20;72.90;;;;;;6185859;23;19944;-96
2022/06/07 14:08:05;;;;;;;;;;;22.00;74.10;;;;;;6186083;23;19991;-95
2022/06/07 14:10:31;;;;;;;;;;;21.80;74.40;;;;;;6186340;23;19940;-95
2022/06/07 14:12:58;;;;;;;;;;;21.60;75.50;;;;;;6158993;23;19939;-95
2022/06/07 14:15:31;;;;;;;;;;;21.40;75.90;;;;;;6159693;23;19957;-95
2022/06/07 14:17:57;;;;;;;;;;;21.30;76.50;;;;;;6186427;23;19961;-96
2022/06/07 14:20:24;;;;;;;;;;;21.20;76.70;;;;;;6186273;23;20345;-95
2022/06/07 14:22:50;;;;;;;;;;;21.20;76.80;;;;;;6186319;23;19964;-96
2022/06/07 14:25:17;;;;;;;;;;;21.20;76.80;;;;;;6186000;23;19959;-96
2022/06/07 14:27:43;;;;;;;;;;;20.90;77.80;;;;;;6159881;23;19966;-96
2022/06/07 14:30:09;;;;;;;;;;;20.70;78.60;;;;;;6186031;23;20265;-96
2022/06/07 14:32:37;;;;;;;;;;;20.60;79.50;;;;;;6186288;23;20033;-96
2022/06/07 14:35:12;;;;;;;;;;;20.50;80.30;;;;;;6186088;23;19939;-96
2022/06/07 14:37:38;;;;;;;;;;;20.50;79.70;;;;;;6159887;23;19959;-96
2022/06/07 14:40:09;;;;;;;;;;;20.40;80.30;;;;;;6186939;23;20014;-96
2022/06/07 14:42:35;;;;;;;;;;;20.40;81.10;;;;;;6186019;23;19999;-96
2022/06/07 14:45:01;;;;;;;;;;;20.30;82.30;;;;;;6186482;23;19938;-96
2022/06/07 14:47:26;;;;;;;;;;;20.30;82.10;;;;;;6159607;23;19949;-96
2022/06/07 14:49:54;;;;;;;;;;;20.20;83.10;;;;;;6186336;23;20362;-96
2022/06/07 14:52:20;;;;;;;;;;;20.10;83.60;;;;;;6185969;23;19942;-96
2022/06/07 14:54:46;;;;;;;;;;;20.10;83.60;;;;;;6186007;23;19934;-96